sensor_id;sensor_type;location;lat;lon;timestamp;pressure;altitude;pressure_sealevel;temperature;humidity
44144;BME280;71749;51.920;4.492;2024-03-23T02:44:58;67045.72;;;10.70;85.43
44144;BME280;71749;51.920;4.492;2024-03-23T02:47:43;67033.47;;;10.59;85.29
44144;BME280;71749;51.920;4.492;2024-03-23T02:50:27;67031.41;;;10.59;85.33
44144;BME280;71749;51.920;4.492;2024-03-23T03:06:35;67034.97;;;10.58;84.69
44144;BME280;71749;51.920;4.492;2024-03-23T03:09:19;67027.88;;;10.54;84.39
44144;BME280;71749;51.920;4.492;2024-03-23T03:12:07;67024.53;;;10.51;84.60
44144;BME280;71749;51.920;4.492;2024-03-23T03:36:51;67006.31;;;10.37;82.32
44144;BME280;71749;51.920;4.492;2024-03-23T03:39:35;67011.16;;;10.39;81.63
44144;BME280;71749;51.920;4.492;2024-03-23T03:42:21;67016.72;;;10.44;81.12
44144;BME280;71749;51.920;4.492;2024-03-23T03:45:06;67014.09;;;10.44;81.21
44144;BME280;71749;51.920;4.492;2024-03-23T03:50:33;67000.72;;;10.32;80.94
44144;BME280;71749;51.920;4.492;2024-03-23T04:28:15;67021.56;;;10.46;79.76
44144;BME280;71749;51.920;4.492;2024-03-23T04:31:03;67002.38;;;10.33;79.97
44144;BME280;71749;51.920;4.492;2024-03-23T04:33:49;67007.25;;;10.35;79.56
44144;BME280;71749;51.920;4.492;2024-03-23T04:36:34;67011.53;;;10.37;78.59
44144;BME280;71749;51.920;4.492;2024-03-23T04:39:19;67008.19;;;10.34;79.31
44144;BME280;71749;51.920;4.492;2024-03-23T04:42:04;66997.38;;;10.29;79.73
44144;BME280;71749;51.920;4.492;2024-03-23T04:44:48;67008.38;;;10.36;80.29
44144;BME280;71749;51.920;4.492;2024-03-23T04:47:33;67005.19;;;10.36;79.26
44144;BME280;71749;51.920;4.492;2024-03-23T04:50:19;66996.81;;;10.28;79.78
44144;BME280;71749;51.920;4.492;2024-03-23T04:53:04;67015.59;;;10.43;80.17
44144;BME280;71749;51.920;4.492;2024-03-23T04:55:49;67009.09;;;10.39;80.03
44144;BME280;71749;51.920;4.492;2024-03-23T04:58:33;67008.19;;;10.34;80.26
44144;BME280;71749;51.920;4.492;2024-03-23T05:01:18;67013.53;;;10.43;80.34
44144;BME280;71749;51.920;4.492;2024-03-23T05:04:03;67019.34;;;10.44;81.42
44144;BME280;71749;51.920;4.492;2024-03-23T05:06:48;67020.06;;;10.47;81.73
44144;BME280;71749;51.920;4.492;2024-03-23T05:09:32;67012.97;;;10.43;82.18
44144;BME280;71749;51.920;4.492;2024-03-23T05:12:17;67017.84;;;10.45;81.85
44144;BME280;71749;51.920;4.492;2024-03-23T05:28:24;67036.81;;;10.62;81.31
44144;BME280;71749;51.920;4.492;2024-03-23T05:33:51;67027.47;;;10.56;80.51
44144;BME280;71749;51.920;4.492;2024-03-23T05:36:35;67029.16;;;10.57;81.22
44144;BME280;71749;51.920;4.492;2024-03-23T05:50:08;67022.84;;;10.49;79.45
44144;BME280;71749;51.920;4.492;2024-03-23T05:52:54;67008.94;;;10.37;79.29
44144;BME280;71749;51.920;4.492;2024-03-23T05:55:39;67018.97;;;10.46;79.40
44144;BME280;71749;51.920;4.492;2024-03-23T05:58:24;67023.03;;;10.52;78.86
44144;BME280;71749;51.920;4.492;2024-03-23T06:01:09;67004.84;;;10.31;78.16
44144;BME280;71749;51.920;4.492;2024-03-23T06:03:54;67008.00;;;10.31;78.16
44144;BME280;71749;51.920;4.492;2024-03-23T06:06:39;67004.44;;;10.33;78.00
44144;BME280;71749;51.920;4.492;2024-03-23T06:09:24;67005.19;;;10.36;77.05
44144;BME280;71749;51.920;4.492;2024-03-23T06:12:09;67003.34;;;10.32;77.08
44144;BME280;71749;51.920;4.492;2024-03-23T06:14:52;66997.75;;;10.27;76.85
44144;BME280;71749;51.920;4.492;2024-03-23T06:17:36;66992.38;;;10.24;77.56
44144;BME280;71749;51.920;4.492;2024-03-23T06:20:22;67002.63;;;10.29;77.14
44144;BME280;71749;51.920;4.492;2024-03-23T06:23:07;67002.94;;;10.34;77.78
44144;BME280;71749;51.920;4.492;2024-03-23T06:25:52;67030.88;;;10.52;77.35
44144;BME280;71749;51.920;4.492;2024-03-23T10:17:17;67571.63;;;15.44;47.44
44144;BME280;71749;51.920;4.492;2024-03-23T10:20:02;67499.16;;;14.83;47.10
44144;BME280;71749;51.920;4.492;2024-03-23T10:25:28;67484.44;;;14.67;45.35
44144;BME280;71749;51.920;4.492;2024-03-23T10:28:13;67490.59;;;14.73;46.12
44144;BME280;71749;51.920;4.492;2024-03-23T10:30:57;67459.25;;;14.45;46.46
44144;BME280;71749;51.920;4.492;2024-03-23T10:33:47;67411.69;;;14.02;46.46
44144;BME280;71749;51.920;4.492;2024-03-23T10:36:34;67457.56;;;14.43;47.35
44144;BME280;71749;51.920;4.492;2024-03-23T10:39:18;67560.59;;;15.36;46.44
44144;BME280;71749;51.920;4.492;2024-03-23T10:42:04;67633.44;;;16.02;44.68
44144;BME280;71749;51.920;4.492;2024-03-23T10:44:49;67705.34;;;16.69;44.45
44144;BME280;71749;51.920;4.492;2024-03-23T10:47:35;67721.47;;;16.82;42.88
44144;BME280;71749;51.920;4.492;2024-03-23T10:50:20;67752.31;;;17.09;42.19
44144;BME280;71749;51.920;4.492;2024-03-23T10:53:05;67766.75;;;17.20;41.04
44144;BME280;71749;51.920;4.492;2024-03-23T10:55:49;67699.44;;;16.59;41.02
44144;BME280;71749;51.920;4.492;2024-03-23T10:58:46;67653.06;;;16.20;41.34
44144;BME280;71749;51.920;4.492;2024-03-23T11:01:31;67661.69;;;16.23;42.29
44144;BME280;71749;51.920;4.492;2024-03-23T11:04:37;67682.06;;;16.44;41.22
44144;BME280;71749;51.920;4.492;2024-03-23T11:07:30;67717.94;;;16.76;40.73
44144;BME280;71749;51.920;4.492;2024-03-23T11:10:29;67767.44;;;17.23;39.45
44144;BME280;71749;51.920;4.492;2024-03-23T11:13:23;67774.72;;;17.30;38.85
44144;BME280;71749;51.920;4.492;2024-03-23T11:16:22;67739.00;;;17.00;39.17
44144;BME280;71749;51.920;4.492;2024-03-23T11:22:39;67909.59;;;18.54;37.46
44144;BME280;71749;51.920;4.492;2024-03-23T11:25:25;67827.50;;;17.77;37.81
44144;BME280;71749;51.920;4.492;2024-03-23T11:28:11;67819.22;;;17.72;37.81
44144;BME280;71749;51.920;4.492;2024-03-23T11:30:55;67791.72;;;17.47;37.26
44144;BME280;71749;51.920;4.492;2024-03-23T11:33:40;67764.09;;;17.20;37.79
44144;BME280;71749;51.920;4.492;2024-03-23T11:36:25;67699.19;;;16.64;37.97
44144;BME280;71749;51.920;4.492;2024-03-23T11:39:19;67626.16;;;15.96;39.22
44144;BME280;71749;51.920;4.492;2024-03-23T11:42:04;67540.19;;;15.23;40.30
44144;BME280;71749;51.920;4.492;2024-03-23T11:44:48;67527.94;;;15.04;41.33
44144;BME280;71749;51.920;4.492;2024-03-23T11:47:33;67492.84;;;14.75;42.04
44144;BME280;71749;51.920;4.492;2024-03-23T11:50:20;67465.59;;;14.53;42.90
44144;BME280;71749;51.920;4.492;2024-03-23T11:53:12;67454.06;;;14.38;43.82
44144;BME280;71749;51.920;4.492;2024-03-23T11:55:57;67551.06;;;15.28;43.36
44144;BME280;71749;51.920;4.492;2024-03-23T11:58:42;67568.59;;;15.46;43.03
44144;BME280;71749;51.920;4.492;2024-03-23T12:01:27;67659.78;;;16.26;41.94
44144;BME280;71749;51.920;4.492;2024-03-23T12:04:12;67722.44;;;16.80;40.53
44144;BME280;71749;51.920;4.492;2024-03-23T12:07:13;67656.56;;;16.25;39.46
44144;BME280;71749;51.920;4.492;2024-03-23T12:10:04;67587.50;;;15.61;40.13
44144;BME280;71749;51.920;4.492;2024-03-23T12:13:00;67568.59;;;15.46;40.67
44144;BME280;71749;51.920;4.492;2024-03-23T12:15:50;67546.19;;;15.26;40.84
44144;BME280;71749;51.920;4.492;2024-03-23T12:18:35;67550.13;;;15.29;41.42
44144;BME280;71749;51.920;4.492;2024-03-23T12:21:19;67581.34;;;15.55;41.64
44144;BME280;71749;51.920;4.492;2024-03-23T12:24:06;67554.03;;;15.33;42.43
44144;BME280;71749;51.920;4.492;2024-03-23T12:26:51;67523.06;;;15.02;42.66
44144;BME280;71749;51.920;4.492;2024-03-23T12:29:35;67511.31;;;14.92;43.13
44144;BME280;71749;51.920;4.492;2024-03-23T12:32:19;67467.81;;;14.55;42.83
44144;BME280;71749;51.920;4.492;2024-03-23T12:35:04;67449.19;;;14.36;43.21
44144;BME280;71749;51.920;4.492;2024-03-23T12:37:49;67421.59;;;14.08;43.26
44144;BME280;71749;51.920;4.492;2024-03-23T12:40:33;67381.06;;;13.76;44.10
44144;BME280;71749;51.920;4.492;2024-03-23T12:43:18;67366.75;;;13.59;44.06
44144;BME280;71749;51.920;4.492;2024-03-23T12:46:02;67352.38;;;13.48;44.38
44144;BME280;71749;51.920;4.492;2024-03-23T12:48:47;67328.50;;;13.29;45.23
44144;BME280;71749;51.920;4.492;2024-03-23T12:51:32;67313.44;;;13.15;45.54
44144;BME280;71749;51.920;4.492;2024-03-23T12:54:16;67325.78;;;13.19;46.19
44144;BME280;71749;51.920;4.492;2024-03-23T12:57:00;67326.28;;;13.27;46.39
44144;BME280;71749;51.920;4.492;2024-03-23T12:59:45;67341.78;;;13.38;45.89
44144;BME280;71749;51.920;4.492;2024-03-23T13:02:34;67339.94;;;13.34;46.22
44144;BME280;71749;51.920;4.492;2024-03-23T13:05:19;67348.47;;;13.44;46.32
44144;BME280;71749;51.920;4.492;2024-03-23T13:08:04;67362.63;;;13.60;46.53
44144;BME280;71749;51.920;4.492;2024-03-23T13:10:51;67337.69;;;13.32;45.24
44144;BME280;71749;51.920;4.492;2024-03-23T13:13:37;67331.69;;;13.29;44.88
44144;BME280;71749;51.920;4.492;2024-03-23T13:16:22;67320.13;;;13.21;44.57
44144;BME280;71749;51.920;4.492;2024-03-23T13:19:06;67340.09;;;13.37;44.81
44144;BME280;71749;51.920;4.492;2024-03-23T13:21:51;67322.34;;;13.23;45.04
44144;BME280;71749;51.920;4.492;2024-03-23T13:24:36;67300.00;;;13.03;45.74
44144;BME280;71749;51.920;4.492;2024-03-23T13:27:21;67303.19;;;13.03;46.88
44144;BME280;71749;51.920;4.492;2024-03-23T13:30:06;67301.19;;;12.97;47.41
44144;BME280;71749;51.920;4.492;2024-03-23T13:32:51;67295.91;;;12.97;46.66
44144;BME280;71749;51.920;4.492;2024-03-23T13:35:36;67289.03;;;12.88;46.77
44144;BME280;71749;51.920;4.492;2024-03-23T13:38:20;67275.22;;;12.78;47.22
44144;BME280;71749;51.920;4.492;2024-03-23T13:46:22;67346.25;;;13.42;48.52
44144;BME280;71749;51.920;4.492;2024-03-23T13:49:07;67304.31;;;13.04;48.52
44144;BME280;71749;51.920;4.492;2024-03-23T13:51:53;67256.78;;;12.61;49.03
44144;BME280;71749;51.920;4.492;2024-03-23T13:54:38;67239.31;;;12.43;51.08
44144;BME280;71749;51.920;4.492;2024-03-23T13:57:23;67224.41;;;12.32;51.95
44144;BME280;71749;51.920;4.492;2024-03-23T14:02:45;67175.97;;;11.91;53.49
44144;BME280;71749;51.920;4.492;2024-03-23T14:13:28;67183.78;;;11.98;58.14
44144;BME280;71749;51.920;4.492;2024-03-23T14:16:13;67150.09;;;11.65;59.35
44144;BME280;71749;51.920;4.492;2024-03-23T14:18:57;67163.34;;;11.74;59.71
44144;BME280;71749;51.920;4.492;2024-03-23T14:21:42;67179.16;;;11.91;59.94
44144;BME280;71749;51.920;4.492;2024-03-23T14:24:28;67163.91;;;11.75;60.25
44144;BME280;71749;51.920;4.492;2024-03-23T14:27:13;67173.41;;;11.83;59.89
44144;BME280;71749;51.920;4.492;2024-03-23T14:29:58;67178.97;;;11.89;58.62
44144;BME280;71749;51.920;4.492;2024-03-23T14:32:42;67200.03;;;12.05;58.36
44144;BME280;71749;51.920;4.492;2024-03-23T14:35:27;67216.25;;;12.20;58.09
44144;BME280;71749;51.920;4.492;2024-03-23T14:38:11;67228.47;;;12.38;59.21
44144;BME280;71749;51.920;4.492;2024-03-23T14:40:59;67240.59;;;12.47;61.68
44144;BME280;71749;51.920;4.492;2024-03-23T14:43:44;67244.50;;;12.50;61.63
44144;BME280;71749;51.920;4.492;2024-03-23T14:46:30;67234.84;;;12.39;60.86
44144;BME280;71749;51.920;4.492;2024-03-23T14:49:14;67229.41;;;12.37;60.11
44144;BME280;71749;51.920;4.492;2024-03-23T14:52:02;67222.72;;;12.31;59.09
44144;BME280;71749;51.920;4.492;2024-03-23T14:54:47;67229.97;;;12.37;58.62
44144;BME280;71749;51.920;4.492;2024-03-23T14:57:32;67213.75;;;12.22;55.76
44144;BME280;71749;51.920;4.492;2024-03-23T15:00:16;67239.06;;;12.48;54.76
44144;BME280;71749;51.920;4.492;2024-03-23T15:03:03;67219.19;;;12.25;53.58
44144;BME280;71749;51.920;4.492;2024-03-23T15:05:58;67223.66;;;12.29;53.96
44144;BME280;71749;51.920;4.492;2024-03-23T15:08:43;67245.78;;;12.54;53.56
44144;BME280;71749;51.920;4.492;2024-03-23T15:11:28;67273.16;;;12.79;51.45
44144;BME280;71749;51.920;4.492;2024-03-23T15:14:13;67281.38;;;12.84;51.04
44144;BME280;71749;51.920;4.492;2024-03-23T15:16:57;67291.84;;;12.91;50.89
44144;BME280;71749;51.920;4.492;2024-03-23T15:19:42;67258.63;;;12.65;50.97
44144;BME280;71749;51.920;4.492;2024-03-23T15:22:26;67251.03;;;12.54;52.62
44144;BME280;71749;51.920;4.492;2024-03-23T15:25:11;67234.63;;;12.44;52.83
44144;BME280;71749;51.920;4.492;2024-03-23T15:27:56;67256.78;;;12.61;52.84
44144;BME280;71749;51.920;4.492;2024-03-23T15:30:44;67208.03;;;12.15;54.55
44144;BME280;71749;51.920;4.492;2024-03-23T15:33:28;67199.66;;;12.07;55.62
44144;BME280;71749;51.920;4.492;2024-03-23T15:36:13;67232.75;;;12.40;55.82
44144;BME280;71749;51.920;4.492;2024-03-23T15:38:57;67242.09;;;12.46;56.89
44144;BME280;71749;51.920;4.492;2024-03-23T15:41:44;67182.66;;;11.97;56.61
44144;BME280;71749;51.920;4.492;2024-03-23T15:44:28;67225.34;;;12.31;55.31
44144;BME280;71749;51.920;4.492;2024-03-23T15:47:13;67270.78;;;12.74;52.67
44144;BME280;71749;51.920;4.492;2024-03-23T15:49:58;67271.72;;;12.73;52.91
44144;BME280;71749;51.920;4.492;2024-03-23T15:52:43;67256.63;;;12.59;53.11
44144;BME280;71749;51.920;4.492;2024-03-23T15:55:27;67257.69;;;12.67;52.95
44144;BME280;71749;51.920;4.492;2024-03-23T15:58:11;67255.28;;;12.62;53.40
44144;BME280;71749;51.920;4.492;2024-03-23T16:01:00;67274.09;;;12.77;53.42
44144;BME280;71749;51.920;4.492;2024-03-23T16:03:44;67272.44;;;12.76;53.07
44144;BME280;71749;51.920;4.492;2024-03-23T16:06:29;67243.53;;;12.52;52.64
44144;BME280;71749;51.920;4.492;2024-03-23T16:09:13;67226.22;;;12.36;53.07
44144;BME280;71749;51.920;4.492;2024-03-23T16:11:58;67252.16;;;12.55;53.03
44144;BME280;71749;51.920;4.492;2024-03-23T16:14:42;67251.59;;;12.54;52.30
44144;BME280;71749;51.920;4.492;2024-03-23T16:17:27;67223.44;;;12.34;52.30
44144;BME280;71749;51.920;4.492;2024-03-23T16:20:12;67245.59;;;12.51;52.32
44144;BME280;71749;51.920;4.492;2024-03-23T16:22:57;67229.97;;;12.37;51.94
44144;BME280;71749;51.920;4.492;2024-03-23T16:25:46;67234.63;;;12.44;52.35
44144;BME280;71749;51.920;4.492;2024-03-23T16:28:35;67253.44;;;12.58;52.22
44144;BME280;71749;51.920;4.492;2024-03-23T16:31:21;67224.22;;;12.30;52.08
44144;BME280;71749;51.920;4.492;2024-03-23T16:34:06;67207.25;;;12.19;53.03
44144;BME280;71749;51.920;4.492;2024-03-23T16:36:50;67205.41;;;12.15;52.18
44144;BME280;71749;51.920;4.492;2024-03-23T16:39:35;67208.75;;;12.18;51.24
44144;BME280;71749;51.920;4.492;2024-03-23T16:42:20;67208.03;;;12.15;50.99
44144;BME280;71749;51.920;4.492;2024-03-23T16:45:05;67216.56;;;12.25;50.20
44144;BME280;71749;51.920;4.492;2024-03-23T16:47:52;67217.69;;;12.26;50.43
44144;BME280;71749;51.920;4.492;2024-03-23T16:50:36;67234.66;;;12.37;50.53
44144;BME280;71749;51.920;4.492;2024-03-23T16:53:20;67227.41;;;12.30;51.02
44144;BME280;71749;51.920;4.492;2024-03-23T16:56:07;67231.47;;;12.36;51.31
44144;BME280;71749;51.920;4.492;2024-03-23T16:58:51;67233.16;;;12.38;51.67
44144;BME280;71749;51.920;4.492;2024-03-23T17:01:36;67233.16;;;12.38;51.99
44144;BME280;71749;51.920;4.492;2024-03-23T17:04:23;67208.75;;;12.18;52.91
44144;BME280;71749;51.920;4.492;2024-03-23T17:07:07;67212.09;;;12.21;53.01
44144;BME280;71749;51.920;4.492;2024-03-23T17:09:52;67229.41;;;12.37;54.20
44144;BME280;71749;51.920;4.492;2024-03-23T17:36:45;67204.09;;;12.11;57.61
44144;BME280;71749;51.920;4.492;2024-03-23T17:39:32;67192.38;;;12.01;58.16
44144;BME280;71749;51.920;4.492;2024-03-23T17:42:17;67159.97;;;11.71;58.63
44144;BME280;71749;51.920;4.492;2024-03-23T17:45:03;67153.84;;;11.66;59.46
44144;BME280;71749;51.920;4.492;2024-03-23T17:47:49;67152.31;;;11.67;59.27
44144;BME280;71749;51.920;4.492;2024-03-23T17:50:35;67167.25;;;11.78;58.88
44144;BME280;71749;51.920;4.492;2024-03-23T17:53:19;67175.97;;;11.91;57.98
44144;BME280;71749;51.920;4.492;2024-03-23T17:56:04;67188.06;;;11.99;57.48
44144;BME280;71749;51.920;4.492;2024-03-23T17:58:49;67176.75;;;11.86;57.71
44144;BME280;71749;51.920;4.492;2024-03-23T18:01:34;67176.19;;;11.86;57.05
44144;BME280;71749;51.920;4.492;2024-03-23T18:04:18;67146.00;;;11.59;56.88
44144;BME280;71749;51.920;4.492;2024-03-23T18:07:02;67178.97;;;11.89;56.77
44144;BME280;71749;51.920;4.492;2024-03-23T18:09:47;67165.91;;;11.81;56.08
44144;BME280;71749;51.920;4.492;2024-03-23T18:12:31;67157.00;;;11.73;56.26
44144;BME280;71749;51.920;4.492;2024-03-23T18:15:17;67180.09;;;11.90;56.05
44144;BME280;71749;51.920;4.492;2024-03-23T18:18:01;67164.47;;;11.75;56.21
44144;BME280;71749;51.920;4.492;2024-03-23T18:20:46;67170.38;;;11.85;56.50
44144;BME280;71749;51.920;4.492;2024-03-23T18:23:30;67173.41;;;11.83;57.02
44144;BME280;71749;51.920;4.492;2024-03-23T18:26:15;67162.38;;;11.76;58.00
44144;BME280;71749;51.920;4.492;2024-03-23T18:29:00;67144.34;;;11.57;58.26
44144;BME280;71749;51.920;4.492;2024-03-23T18:31:44;67163.50;;;11.77;58.86
44144;BME280;71749;51.920;4.492;2024-03-23T18:34:29;67154.72;;;11.71;59.43
44144;BME280;71749;51.920;4.492;2024-03-23T18:37:13;67171.91;;;11.84;59.53
44144;BME280;71749;51.920;4.492;2024-03-23T18:39:57;67154.72;;;11.71;60.16
44144;BME280;71749;51.920;4.492;2024-03-23T18:42:41;67168.19;;;11.76;60.95
44144;BME280;71749;51.920;4.492;2024-03-23T18:45:26;67168.16;;;11.83;61.12
44144;BME280;71749;51.920;4.492;2024-03-23T18:48:11;67161.44;;;11.77;61.36
44144;BME280;71749;51.920;4.492;2024-03-23T18:50:55;67132.22;;;11.49;61.41
44144;BME280;71749;51.920;4.492;2024-03-23T18:53:40;67129.28;;;11.43;61.96
44144;BME280;71749;51.920;4.492;2024-03-23T18:56:25;67118.28;;;11.36;62.73
44144;BME280;71749;51.920;4.492;2024-03-23T18:59:10;67118.09;;;11.33;62.66
44144;BME280;71749;51.920;4.492;2024-03-23T19:01:55;67124.97;;;11.42;62.84
44144;BME280;71749;51.920;4.492;2024-03-23T19:04:39;67126.47;;;11.41;63.38
44144;BME280;71749;51.920;4.492;2024-03-23T19:07:23;67135.41;;;11.49;63.35
44144;BME280;71749;51.920;4.492;2024-03-23T19:10:08;67144.91;;;11.58;63.30
44144;BME280;71749;51.920;4.492;2024-03-23T19:12:54;67122.72;;;11.40;63.98
44144;BME280;71749;51.920;4.492;2024-03-23T19:15:38;67140.59;;;11.56;64.12
44144;BME280;71749;51.920;4.492;2024-03-23T19:18:23;67148.97;;;11.64;63.96
44144;BME280;71749;51.920;4.492;2024-03-23T19:21:07;67134.06;;;11.53;63.87
44144;BME280;71749;51.920;4.492;2024-03-23T19:23:52;67168.19;;;11.76;63.82
44144;BME280;71749;51.920;4.492;2024-03-23T19:26:37;67154.78;;;11.64;64.71
44144;BME280;71749;51.920;4.492;2024-03-23T19:29:21;67153.59;;;11.70;64.84
44144;BME280;71749;51.920;4.492;2024-03-23T19:32:06;67141.00;;;11.54;65.28
44144;BME280;71749;51.920;4.492;2024-03-23T19:34:50;67106.75;;;11.21;66.93
44144;BME280;71749;51.920;4.492;2024-03-23T19:37:35;67097.78;;;11.20;67.83
44144;BME280;71749;51.920;4.492;2024-03-23T19:40:19;67130.56;;;11.47;67.35
44144;BME280;71749;51.920;4.492;2024-03-23T19:43:04;67108.44;;;11.22;67.57
44144;BME280;71749;51.920;4.492;2024-03-23T19:45:48;67110.63;;;11.31;68.90
44144;BME280;71749;51.920;4.492;2024-03-23T19:48:33;67122.72;;;11.40;69.12
44144;BME280;71749;51.920;4.492;2024-03-23T19:51:17;67115.47;;;11.33;68.98
44144;BME280;71749;51.920;4.492;2024-03-23T19:54:01;67111.00;;;11.29;69.75
44144;BME280;71749;51.920;4.492;2024-03-23T19:56:46;67121.28;;;11.34;70.73
44144;BME280;71749;51.920;4.492;2024-03-23T19:59:31;67106.38;;;11.23;71.13
44144;BME280;71749;51.920;4.492;2024-03-23T20:02:15;67107.84;;;11.29;71.70
44144;BME280;71749;51.920;4.492;2024-03-23T20:05:00;67104.88;;;11.24;72.12
44144;BME280;71749;51.920;4.492;2024-03-23T20:07:44;67105.59;;;11.27;72.29
44144;BME280;71749;51.920;4.492;2024-03-23T20:10:29;67109.19;;;11.25;73.03
44144;BME280;71749;51.920;4.492;2024-03-23T20:13:13;67097.63;;;11.17;74.06
44144;BME280;71749;51.920;4.492;2024-03-23T20:15:57;67115.66;;;11.36;73.95
44144;BME280;71749;51.920;4.492;2024-03-23T20:18:42;67116.03;;;11.34;73.96
44144;BME280;71749;51.920;4.492;2024-03-23T20:21:26;67134.44;;;11.51;73.83
44144;BME280;71749;51.920;4.492;2024-03-23T20:24:14;67100.97;;;11.20;74.06
44144;BME280;71749;51.920;4.492;2024-03-23T20:26:59;67121.63;;;11.39;74.39
44144;BME280;71749;51.920;4.492;2024-03-23T20:29:43;67120.91;;;11.36;74.75
44144;BME280;71749;51.920;4.492;2024-03-23T20:32:28;67101.69;;;11.23;74.84
44144;BME280;71749;51.920;4.492;2024-03-23T20:35:13;67099.31;;;11.19;74.94
44144;BME280;71749;51.920;4.492;2024-03-23T20:37:57;67117.53;;;11.33;74.73
44144;BME280;71749;51.920;4.492;2024-03-23T20:40:42;67074.00;;;10.93;74.59
44144;BME280;71749;51.920;4.492;2024-03-23T20:43:27;67071.22;;;10.91;74.75
44144;BME280;71749;51.920;4.492;2024-03-23T20:46:13;67055.03;;;10.76;75.31
44144;BME280;71749;51.920;4.492;2024-03-23T20:48:58;67057.28;;;10.78;75.78
44144;BME280;71749;51.920;4.492;2024-03-23T20:51:43;67081.44;;;11.02;75.88
44144;BME280;71749;51.920;4.492;2024-03-23T20:54:31;67071.63;;;10.89;75.59
44144;BME280;71749;51.920;4.492;2024-03-23T20:57:15;67102.63;;;11.22;74.83
44144;BME280;71749;51.920;4.492;2024-03-23T21:00:00;67077.16;;;11.01;73.96
44144;BME280;71749;51.920;4.492;2024-03-23T21:02:49;67070.28;;;10.92;73.80
44144;BME280;71749;51.920;4.492;2024-03-23T21:05:33;67054.66;;;10.78;73.72
44144;BME280;71749;51.920;4.492;2024-03-23T21:08:21;67083.50;;;11.02;73.83
44144;BME280;71749;51.920;4.492;2024-03-23T21:11:05;67085.16;;;11.03;73.69
44144;BME280;71749;51.920;4.492;2024-03-23T21:13:51;67085.34;;;11.06;73.92
44144;BME280;71749;51.920;4.492;2024-03-23T21:16:36;67085.72;;;11.04;73.60
44144;BME280;71749;51.920;4.492;2024-03-23T21:19:22;67093.31;;;11.16;73.71
44144;BME280;71749;51.920;4.492;2024-03-23T21:22:06;67094.28;;;11.14;73.31
44144;BME280;71749;51.920;4.492;2024-03-23T21:38:21;67119.22;;;11.34;70.44
44144;BME280;71749;51.920;4.492;2024-03-23T21:41:05;67081.28;;;11.00;71.40
44144;BME280;71749;51.920;4.492;2024-03-23T21:43:51;67061.50;;;10.87;71.70
44144;BME280;71749;51.920;4.492;2024-03-23T22:27:20;67113.06;;;11.29;68.93
44144;BME280;71749;51.920;4.492;2024-03-23T22:32:46;67133.56;;;11.45;68.96
44144;BME280;71749;51.920;4.492;2024-03-23T22:37:58;67120.50;;;11.38;69.15
44144;BME280;71749;51.920;4.492;2024-03-23T22:40:42;67082.53;;;11.03;70.04
44144;BME280;71749;51.920;4.492;2024-03-23T22:43:29;67087.41;;;11.05;71.01
44144;BME280;71749;51.920;4.492;2024-03-23T22:46:14;67083.66;;;11.04;70.59
44144;BME280;71749;51.920;4.492;2024-03-23T22:48:58;67088.31;;;11.11;72.10
44144;BME280;71749;51.920;4.492;2024-03-23T22:51:42;67106.56;;;11.25;75.24
44144;BME280;71749;51.920;4.492;2024-03-23T22:54:28;67067.88;;;10.88;77.05
44144;BME280;71749;51.920;4.492;2024-03-23T23:13:17;67012.25;;;10.40;82.80
44144;BME280;71749;51.920;4.492;2024-03-23T23:16:02;67010.03;;;10.38;83.35
44144;BME280;71749;51.920;4.492;2024-03-23T23:21:32;67031.06;;;10.54;85.14
44144;BME280;71749;51.920;4.492;2024-03-23T23:24:20;66973.22;;;10.04;88.04
44144;BME280;71749;51.920;4.492;2024-03-23T23:27:04;66922.09;;;9.60;90.77
44144;BME280;71749;51.920;4.492;2024-03-23T23:29:49;66901.88;;;9.39;93.44
44144;BME280;71749;51.920;4.492;2024-03-23T23:35:15;66924.88;;;9.63;95.27
44144;BME280;71749;51.920;4.492;2024-03-23T23:38:00;66936.25;;;9.68;95.41
44144;BME280;71749;51.920;4.492;2024-03-23T23:40:45;66942.19;;;9.71;96.36
44144;BME280;71749;51.920;4.492;2024-03-23T23:43:29;66942.72;;;9.79;96.09
44144;BME280;71749;51.920;4.492;2024-03-23T23:57:02;66922.31;;;9.56;96.24
44144;BME280;71749;51.920;4.492;2024-03-23T23:59:48;66969.84;;;10.01;95.57
